Redondo Beach, Washington
Current Conditions -  °F | °C
As of 9:53 AM on Thursday 23 Oct 2014 (Local Time) from KSEA Reporting Station
Light Rain Light Rain  
Wind Chill: 51°   Ceiling: 4500
Heat Index: 51°   Visibility: 10mi
Dew Point: 48°   Wind: 6mph
Humidity: 89%   Direction: 170°S
Pressure: 29.78"   Gusts: NA
Location:  47.4036°N, 122.309°W
Report Text: KSEA 231653Z 17005KT 10SM -RA BKN045 OVC055 11/09 A2978 RMK AO2 RAE1554B12 SLP092 P0002 T01060089
Loading
Personal Weather Stations






























Interactive Weather Map
Tropical Storm Tracking
New forecast layout! Learn more

10-Day Weather Forecast

Advertisements
Track Severe Weather on mobile